Time;durP1;ratioP1;P1;durP2;ratioP2;P2;SDS_P1;SDS_P2;PMS_P1;PMS_P2;Temp;Humidity;BMP_temperature;BMP_pressure;BME280_temperature;BME280_humidity;BME280_pressure;Samples;Min_cycle;Max_cycle;Signal;HPM_P1;HPM_P2
2023/10/11 00:00:50;;;;;;;6.47;4.05;;;;;16.30;101072.00;;;;10455949;28;20679;-70
2023/10/11 00:05:53;;;;;;;11.23;4.38;;;;;16.20;101076.00;;;;10448159;28;20214;-69
2023/10/11 00:10:59;;;;;;;7.78;4.15;;;;;16.20;101077.00;;;;10445387;28;20201;-71
2023/10/11 00:16:07;;;;;;;6.78;4.32;;;;;16.10;101069.00;;;;10457571;28;20198;-71
2023/10/11 00:21:11;;;;;;;9.90;4.40;;;;;16.10;101060.00;;;;10451437;28;20262;-70
2023/10/11 00:26:14;;;;;;;8.80;4.47;;;;;16.20;101063.00;;;;10449323;28;20268;-71
2023/10/11 00:31:25;;;;;;;8.27;4.20;;;;;16.40;101054.00;;;;10447971;28;20225;-70
2023/10/11 00:36:29;;;;;;;7.88;4.18;;;;;16.40;101057.00;;;;10450566;28;20217;-73
2023/10/11 00:41:36;;;;;;;9.55;4.30;;;;;16.40;101049.00;;;;10449373;28;20233;-72
2023/10/11 00:46:45;;;;;;;8.20;4.93;;;;;16.40;101044.00;;;;10449448;28;20203;-69
2023/10/11 00:51:51;;;;;;;9.65;5.05;;;;;16.40;101045.00;;;;10453521;28;20213;-71
2023/10/11 00:56:54;;;;;;;8.35;4.70;;;;;16.30;101033.00;;;;10441209;28;20279;-70
2023/10/11 01:01:58;;;;;;;7.03;4.40;;;;;16.30;101030.00;;;;10455372;28;20215;-69
2023/10/11 01:07:01;;;;;;;8.48;4.50;;;;;16.30;101032.00;;;;10453197;28;20217;-72
2023/10/11 01:12:03;;;;;;;10.55;5.43;;;;;16.40;101030.00;;;;10451062;28;20202;-70
2023/10/11 01:17:07;;;;;;;8.30;4.60;;;;;16.40;101035.00;;;;10451476;28;20201;-70
2023/10/11 01:22:09;;;;;;;10.30;4.60;;;;;16.30;101023.00;;;;10456660;28;20291;-72
2023/10/11 01:27:13;;;;;;;8.20;4.78;;;;;16.30;101024.00;;;;10459254;28;20200;-71
2023/10/11 01:32:16;;;;;;;8.70;4.60;;;;;16.40;101017.00;;;;10458955;28;20202;-72
2023/10/11 01:37:18;;;;;;;8.93;5.15;;;;;16.50;101015.00;;;;10457560;28;20251;-72
2023/10/11 01:42:19;;;;;;;9.00;4.60;;;;;16.50;101001.00;;;;10449838;28;20249;-71
2023/10/11 01:47:21;;;;;;;6.38;4.30;;;;;16.40;101000.00;;;;10451776;28;20206;-71
2023/10/11 01:52:25;;;;;;;8.73;4.47;;;;;16.40;100998.00;;;;10445315;28;20212;-73
2023/10/11 01:57:28;;;;;;;7.88;4.57;;;;;16.40;100987.00;;;;10459845;28;20213;-71
2023/10/11 02:02:32;;;;;;;7.85;4.75;;;;;16.40;100996.00;;;;10453935;28;20822;-70
2023/10/11 02:07:34;;;;;;;8.48;5.20;;;;;16.40;100980.00;;;;10454439;28;20243;-71
2023/10/11 02:12:36;;;;;;;9.73;5.13;;;;;16.40;100984.00;;;;10453922;28;20214;-70
2023/10/11 02:17:39;;;;;;;11.20;4.68;;;;;16.30;100976.00;;;;10454633;28;20270;-70
2023/10/11 02:22:44;;;;;;;9.85;5.15;;;;;16.30;100972.00;;;;10451908;28;20317;-72
2023/10/11 02:27:49;;;;;;;10.30;5.63;;;;;16.30;100974.00;;;;10451393;28;20320;-70
2023/10/11 02:32:53;;;;;;;9.68;5.05;;;;;16.30;100969.00;;;;10456413;28;20363;-71
2023/10/11 02:37:59;;;;;;;13.15;5.40;;;;;16.20;100962.00;;;;10458767;28;20209;-71
2023/10/11 02:43:03;;;;;;;8.57;4.85;;;;;16.20;100965.00;;;;10450244;28;20955;-72
2023/10/11 02:48:10;;;;;;;9.70;5.75;;;;;16.20;100967.00;;;;10448709;28;20293;-70
2023/10/11 02:53:21;;;;;;;7.97;5.45;;;;;16.20;100957.00;;;;10452455;28;20667;-72
2023/10/11 02:58:29;;;;;;;9.10;5.60;;;;;16.20;100956.00;;;;10458060;28;20305;-72
2023/10/11 03:03:38;;;;;;;7.10;5.30;;;;;16.20;100942.00;;;;10460106;28;20316;-72
2023/10/11 03:08:41;;;;;;;8.65;5.20;;;;;16.20;100953.00;;;;10448399;28;20541;-71
2023/10/11 03:13:43;;;;;;;10.27;4.90;;;;;16.10;100953.00;;;;10447617;28;20294;-70
2023/10/11 03:18:46;;;;;;;10.57;5.88;;;;;16.00;100963.00;;;;10454136;28;20769;-71
2023/10/11 03:23:54;;;;;;;8.75;5.28;;;;;15.90;100957.00;;;;10456623;28;20756;-71
2023/10/11 03:29:04;;;;;;;11.43;5.55;;;;;15.70;100960.00;;;;10450882;28;20938;-73
2023/10/11 03:34:17;;;;;;;11.90;4.80;;;;;15.70;100955.00;;;;10457592;28;20634;-70
2023/10/11 03:39:28;;;;;;;12.02;5.30;;;;;15.70;100935.00;;;;10457127;28;20209;-71
2023/10/11 03:44:35;;;;;;;11.40;6.05;;;;;15.80;100935.00;;;;10449567;28;20234;-72
2023/10/11 03:54:42;;;;;;;11.32;4.90;;;;;15.80;100950.00;;;;10457602;28;20220;-71
2023/10/11 03:59:48;;;;;;;9.05;5.30;;;;;15.80;100945.00;;;;10453477;28;20190;-72
2023/10/11 04:04:50;;;;;;;8.98;5.05;;;;;15.70;100930.00;;;;10449633;28;20248;-71
2023/10/11 04:09:52;;;;;;;10.45;5.75;;;;;15.70;100949.00;;;;10451113;28;20808;-71
2023/10/11 04:14:57;;;;;;;9.35;5.68;;;;;15.60;100947.00;;;;10455185;28;20259;-72
2023/10/11 04:20:18;;;;;;;12.43;6.07;;;;;15.60;100945.00;;;;10454597;28;20700;-70
2023/10/11 04:25:23;;;;;;;11.10;5.20;;;;;15.50;100939.00;;;;10454835;28;20965;-71
2023/10/11 04:30:40;;;;;;;12.07;5.80;;;;;15.50;100942.00;;;;10445035;28;20221;-72
2023/10/11 04:35:43;;;;;;;9.57;5.50;;;;;15.50;100934.00;;;;10448850;28;20251;-72
2023/10/11 04:40:54;;;;;;;12.77;5.75;;;;;15.60;100921.00;;;;10453172;28;20206;-70
2023/10/11 04:46:07;;;;;;;17.52;7.53;;;;;15.70;100923.00;;;;10452447;28;20861;-70
2023/10/11 05:06:53;;;;;;;9.32;5.28;;;;;15.60;100917.00;;;;10462569;28;20218;-72
2023/10/11 05:22:29;;;;;;;14.05;6.15;;;;;15.70;100939.00;;;;10456787;28;20314;-70
2023/10/11 05:27:39;;;;;;;15.07;6.25;;;;;15.60;100935.00;;;;10457285;28;20296;-69
2023/10/11 05:53:59;;;;;;;14.35;6.25;;;;;15.50;100946.00;;;;10455201;28;20274;-71
2023/10/11 05:59:09;;;;;;;13.07;5.97;;;;;15.50;100942.00;;;;10454812;28;20828;-70
2023/10/11 06:04:13;;;;;;;13.00;6.25;;;;;15.60;100942.00;;;;10459357;28;20229;-69
2023/10/11 06:09:16;;;;;;;9.27;5.57;;;;;15.70;100949.00;;;;10458779;28;20277;-69
2023/10/11 06:14:20;;;;;;;9.57;5.82;;;;;15.70;100945.00;;;;10460252;28;20290;-68
2023/10/11 06:19:27;;;;;;;12.23;6.45;;;;;15.80;100949.00;;;;10456003;28;20198;-69
2023/10/11 06:24:34;;;;;;;9.95;5.93;;;;;15.90;100953.00;;;;10462025;28;20225;-69
2023/10/11 06:29:53;;;;;;;12.18;5.82;;;;;16.10;100956.00;;;;10455273;28;20552;-69
2023/10/11 06:34:55;;;;;;;12.75;6.43;;;;;16.20;100950.00;;;;10437002;28;20197;-70
2023/10/11 06:45:05;;;;;;;13.18;6.10;;;;;16.40;100959.00;;;;10457421;28;20213;-69
2023/10/11 06:50:11;;;;;;;14.13;6.10;;;;;16.60;100953.00;;;;10458114;28;20856;-71
2023/10/11 06:55:22;;;;;;;8.88;6.05;;;;;16.80;100954.00;;;;10456044;28;20839;-69
2023/10/11 07:00:27;;;;;;;9.98;6.05;;;;;17.00;100961.00;;;;10447888;28;20660;-70
2023/10/11 07:05:31;;;;;;;11.93;6.55;;;;;17.20;100961.00;;;;10450733;28;20210;-71
2023/10/11 07:10:33;;;;;;;12.25;6.13;;;;;17.40;100952.00;;;;10454890;28;20198;-71
2023/10/11 07:15:44;;;;;;;13.77;6.78;;;;;17.50;100960.00;;;;10451106;28;20204;-69
2023/10/11 07:20:49;;;;;;;16.95;7.20;;;;;17.70;100969.00;;;;10456888;28;20287;-69
2023/10/11 07:25:59;;;;;;;15.65;7.82;;;;;17.80;100989.00;;;;10451229;28;20230;-70
2023/10/11 07:31:04;;;;;;;12.75;8.10;;;;;18.00;100983.00;;;;10460744;28;20215;-69
2023/10/11 07:36:11;;;;;;;12.13;7.82;;;;;18.00;100994.00;;;;10451598;28;20194;-71
2023/10/11 07:41:21;;;;;;;13.13;8.18;;;;;18.20;101000.00;;;;10450185;28;20395;-71
2023/10/11 07:46:24;;;;;;;15.75;7.80;;;;;18.30;100999.00;;;;10452232;28;20197;-70
2023/10/11 07:51:26;;;;;;;14.00;8.43;;;;;18.50;100999.00;;;;10458920;28;20189;-71
2023/10/11 07:56:28;;;;;;;17.35;8.38;;;;;18.60;101019.00;;;;10455630;28;20218;-71
2023/10/11 08:01:42;;;;;;;15.25;8.32;;;;;18.70;101006.00;;;;10455821;28;20293;-69
2023/10/11 08:06:45;;;;;;;19.42;8.13;;;;;18.90;101000.00;;;;10455596;28;20182;-70
2023/10/11 08:11:52;;;;;;;15.73;8.60;;;;;19.20;100988.00;;;;10454465;28;20202;-71
2023/10/11 08:17:10;;;;;;;12.80;8.75;;;;;19.80;100996.00;;;;10459159;28;20199;-70
2023/10/11 08:22:16;;;;;;;14.27;8.05;;;;;20.60;101004.00;;;;10457620;28;20221;-70
2023/10/11 08:27:28;;;;;;;13.00;8.60;;;;;21.20;101010.00;;;;10450297;28;20217;-70
2023/10/11 08:32:33;;;;;;;17.13;8.13;;;;;21.30;101016.00;;;;10457023;28;20890;-69
2023/10/11 08:37:37;;;;;;;16.95;9.00;;;;;20.70;101029.00;;;;10457029;28;20201;-70
2023/10/11 08:42:39;;;;;;;19.73;9.57;;;;;20.00;101036.00;;;;10459818;28;20223;-69
2023/10/11 08:47:43;;;;;;;15.98;8.85;;;;;19.50;101041.00;;;;10460674;28;20194;-69
2023/10/11 08:52:45;;;;;;;16.67;9.65;;;;;19.10;101040.00;;;;10456908;28;20307;-70
2023/10/11 08:57:48;;;;;;;17.80;10.13;;;;;19.10;101045.00;;;;10455460;28;20205;-72
2023/10/11 09:02:52;;;;;;;14.15;8.85;;;;;19.70;101039.00;;;;10464237;28;20325;-70
2023/10/11 09:07:55;;;;;;;14.43;9.25;;;;;20.40;101038.00;;;;10458886;28;20190;-72
2023/10/11 09:12:59;;;;;;;17.23;9.48;;;;;20.60;101048.00;;;;10456457;28;20208;-71
2023/10/11 09:18:15;;;;;;;15.85;9.48;;;;;20.90;101046.00;;;;10460601;28;20190;-71
2023/10/11 09:23:38;;;;;;;18.90;9.90;;;;;21.00;101045.00;;;;10457846;28;20951;-72
2023/10/11 09:28:46;;;;;;;15.65;10.00;;;;;20.70;101042.00;;;;10471342;28;20205;-70
2023/10/11 09:33:59;;;;;;;12.57;9.20;;;;;20.80;101052.00;;;;10457341;28;20197;-72
2023/10/11 09:39:04;;;;;;;16.42;9.73;;;;;21.10;101037.00;;;;10454823;28;20210;-71
2023/10/11 09:44:10;;;;;;;16.08;9.32;;;;;21.20;101036.00;;;;10461410;28;20221;-71
2023/10/11 09:49:12;;;;;;;18.48;10.35;;;;;21.10;101032.00;;;;10461358;28;20201;-71
2023/10/11 09:54:15;;;;;;;20.77;10.45;;;;;21.30;101034.00;;;;10459761;28;20777;-70
2023/10/11 09:59:29;;;;;;;15.55;10.10;;;;;21.40;101043.00;;;;10455960;28;20240;-71
2023/10/11 10:04:50;;;;;;;17.70;10.68;;;;;21.50;101048.00;;;;10454777;28;20229;-70
2023/10/11 10:09:52;;;;;;;15.93;10.13;;;;;21.40;101054.00;;;;10452671;28;20292;-69
2023/10/11 10:15:04;;;;;;;20.55;10.55;;;;;21.80;101050.00;;;;10454003;28;20201;-72
2023/10/11 10:20:34;;;;;;;23.60;11.65;;;;;22.10;101052.00;;;;10453631;28;20197;-71
2023/10/11 10:25:36;;;;;;;21.40;11.02;;;;;22.30;101053.00;;;;10452898;28;20275;-71
2023/10/11 10:31:21;;;;;;;19.25;11.25;;;;;22.70;101049.00;;;;10455080;28;20209;-72
2023/10/11 10:36:28;;;;;;;18.27;9.77;;;;;22.90;101043.00;;;;10445754;28;20225;-70
2023/10/11 10:41:33;;;;;;;21.52;10.60;;;;;23.60;101054.00;;;;10451605;28;20202;-70
2023/10/11 10:46:37;;;;;;;23.15;11.02;;;;;23.50;101066.00;;;;10457826;28;20226;-71
2023/10/11 10:51:47;;;;;;;16.95;10.38;;;;;23.40;101057.00;;;;10454071;28;20206;-71
2023/10/11 10:56:58;;;;;;;17.95;10.65;;;;;23.80;101050.00;;;;10447618;28;20232;-70
2023/10/11 11:02:10;;;;;;;19.45;10.73;;;;;24.20;101037.00;;;;10450164;28;20214;-71
2023/10/11 11:07:25;;;;;;;21.27;10.63;;;;;24.20;101031.00;;;;10452107;28;20213;-71
2023/10/11 11:12:31;;;;;;;20.17;10.95;;;;;24.30;101028.00;;;;10453850;28;20702;-70
2023/10/11 11:17:47;;;;;;;21.52;10.60;;;;;24.50;101021.00;;;;10452490;28;20198;-70
2023/10/11 11:22:52;;;;;;;19.77;10.48;;;;;24.40;101012.00;;;;10454158;28;20836;-72
2023/10/11 11:28:18;;;;;;;18.02;9.07;;;;;24.30;101017.00;;;;10457031;28;20824;-69
2023/10/11 11:33:35;;;;;;;19.88;9.32;;;;;24.30;101002.00;;;;10451243;28;20271;-71
2023/10/11 11:38:45;;;;;;;17.52;9.20;;;;;24.70;100977.00;;;;10452168;28;20202;-71
2023/10/11 11:43:48;;;;;;;20.83;8.93;;;;;25.30;100977.00;;;;10453272;28;20300;-72
2023/10/11 11:48:51;;;;;;;16.60;8.50;;;;;25.50;100970.00;;;;10452272;28;20222;-69
2023/10/11 11:53:54;;;;;;;19.48;8.82;;;;;25.00;100961.00;;;;10453391;28;20330;-71
2023/10/11 11:59:00;;;;;;;19.42;8.05;;;;;24.60;100949.00;;;;10450628;28;20278;-72
2023/10/11 12:04:02;;;;;;;20.60;7.22;;;;;24.40;100944.00;;;;10444144;28;20228;-70
2023/10/11 12:09:05;;;;;;;19.17;7.20;;;;;24.40;100931.00;;;;10450773;28;20227;-72
2023/10/11 12:14:10;;;;;;;19.50;7.40;;;;;24.40;100922.00;;;;10451704;28;20232;-71
2023/10/11 12:19:13;;;;;;;15.02;6.68;;;;;24.30;100920.00;;;;10454714;28;20210;-71
2023/10/11 12:24:15;;;;;;;18.15;7.50;;;;;24.10;100914.00;;;;10448654;28;20256;-71
2023/10/11 12:29:32;;;;;;;15.85;6.25;;;;;24.00;100926.00;;;;10451919;28;20208;-70
2023/10/11 12:34:34;;;;;;;15.70;6.55;;;;;24.30;100930.00;;;;10453443;28;21093;-72
2023/10/11 12:39:36;;;;;;;18.08;6.20;;;;;24.20;100915.00;;;;10454968;28;20202;-72
2023/10/11 12:44:40;;;;;;;18.40;5.13;;;;;24.30;100918.00;;;;10452906;28;20236;-72
2023/10/11 12:49:44;;;;;;;21.55;6.70;;;;;24.80;100908.00;;;;10449603;28;20279;-69
2023/10/11 12:54:46;;;;;;;14.45;5.97;;;;;24.80;100910.00;;;;10452961;28;20206;-70
2023/10/11 12:59:48;;;;;;;14.95;5.97;;;;;25.10;100903.00;;;;10449457;28;21032;-70
2023/10/11 13:04:52;;;;;;;13.93;5.53;;;;;25.40;100884.00;;;;10461239;28;20226;-72
2023/10/11 13:10:02;;;;;;;18.83;5.95;;;;;25.40;100886.00;;;;10456569;28;20940;-70
2023/10/11 13:15:15;;;;;;;11.18;5.68;;;;;25.10;100898.00;;;;10458363;28;20622;-70
2023/10/11 13:20:31;;;;;;;15.77;5.07;;;;;24.80;100877.00;;;;10458864;28;20219;-70
2023/10/11 13:25:33;;;;;;;16.55;4.90;;;;;24.70;100869.00;;;;10456945;28;20260;-70
2023/10/11 13:30:36;;;;;;;17.05;5.50;;;;;24.70;100859.00;;;;10446988;28;20851;-72
2023/10/11 13:35:39;;;;;;;12.50;5.05;;;;;24.60;100860.00;;;;10455323;28;20205;-71
2023/10/11 13:40:40;;;;;;;11.93;5.18;;;;;24.60;100849.00;;;;10461594;28;20324;-72
2023/10/11 13:45:56;;;;;;;12.52;5.03;;;;;24.70;100843.00;;;;10447951;28;20217;-70
2023/10/11 13:51:03;;;;;;;10.55;4.35;;;;;24.70;100836.00;;;;10448765;28;20590;-72
2023/10/11 13:56:10;;;;;;;11.90;4.75;;;;;24.70;100809.00;;;;10438721;28;20217;-70
2023/10/11 14:11:53;;;;;;;11.23;4.53;;;;;24.00;100799.00;;;;10456734;28;20926;-70
2023/10/11 14:16:57;;;;;;;13.13;4.70;;;;;23.90;100778.00;;;;10456960;28;20204;-70
2023/10/11 14:22:00;;;;;;;11.45;4.65;;;;;24.00;100784.00;;;;10457866;28;20194;-69
2023/10/11 14:27:02;;;;;;;12.90;4.85;;;;;24.00;100781.00;;;;10447450;28;20299;-69
2023/10/11 14:32:04;;;;;;;9.30;4.13;;;;;23.90;100775.00;;;;10457807;28;21224;-72
2023/10/11 14:37:08;;;;;;;8.20;4.57;;;;;24.00;100768.00;;;;10454359;28;20209;-70
2023/10/11 14:42:15;;;;;;;10.05;4.60;;;;;23.90;100778.00;;;;10454891;28;20903;-69
2023/10/11 14:47:17;;;;;;;8.80;5.03;;;;;23.80;100775.00;;;;10455902;28;20199;-70
2023/10/11 14:52:20;;;;;;;9.25;4.75;;;;;23.70;100773.00;;;;10456990;28;20189;-70
2023/10/11 14:57:21;;;;;;;10.60;5.07;;;;;23.60;100760.00;;;;10451659;28;20217;-71
2023/10/11 15:02:24;;;;;;;12.10;4.82;;;;;23.50;100756.00;;;;10449972;28;20194;-70
2023/10/11 15:07:26;;;;;;;11.88;4.88;;;;;23.30;100748.00;;;;10459304;28;20201;-69
2023/10/11 15:12:28;;;;;;;9.43;4.43;;;;;23.20;100736.00;;;;10453175;28;20280;-72
2023/10/11 15:17:31;;;;;;;11.18;4.35;;;;;23.10;100736.00;;;;10449720;28;20701;-72
2023/10/11 15:22:36;;;;;;;10.52;4.93;;;;;23.00;100730.00;;;;10454285;28;20205;-71
2023/10/11 15:27:38;;;;;;;15.57;4.95;;;;;22.80;100722.00;;;;10446126;28;20193;-71
2023/10/11 15:32:40;;;;;;;12.85;4.50;;;;;22.70;100723.00;;;;10447618;28;20201;-69
2023/10/11 15:37:46;;;;;;;7.60;3.95;;;;;22.60;100717.00;;;;10455056;28;20632;-72
2023/10/11 15:42:48;;;;;;;9.25;4.22;;;;;22.50;100729.00;;;;10450863;28;20224;-72
2023/10/11 15:47:50;;;;;;;9.88;4.15;;;;;22.30;100716.00;;;;10455639;28;20266;-69
2023/10/11 15:52:52;;;;;;;8.20;4.00;;;;;22.20;100710.00;;;;10468949;28;20205;-72
2023/10/11 15:57:55;;;;;;;9.82;4.07;;;;;22.10;100709.00;;;;10453529;28;20285;-71
2023/10/11 16:02:57;;;;;;;8.63;3.90;;;;;22.10;100710.00;;;;10454293;28;20221;-72
2023/10/11 16:07:59;;;;;;;12.20;4.47;;;;;21.90;100699.00;;;;10447124;28;20266;-70
2023/10/11 16:13:02;;;;;;;7.50;3.75;;;;;21.70;100714.00;;;;10451709;28;20360;-70
2023/10/11 16:18:05;;;;;;;7.75;4.50;;;;;21.60;100712.00;;;;10449603;28;20186;-69
2023/10/11 16:23:07;;;;;;;9.52;3.58;;;;;21.40;100701.00;;;;10445299;28;20484;-71
2023/10/11 16:28:09;;;;;;;5.25;3.17;;;;;21.20;100705.00;;;;10455541;28;20263;-72
2023/10/11 16:33:12;;;;;;;7.57;3.50;;;;;21.10;100702.00;;;;10452315;28;20198;-70
2023/10/11 16:38:14;;;;;;;8.25;3.70;;;;;21.00;100713.00;;;;10457908;28;20933;-69
2023/10/11 16:43:20;;;;;;;8.45;4.10;;;;;20.90;100699.00;;;;10464601;28;20229;-70
2023/10/11 16:48:22;;;;;;;7.72;4.05;;;;;20.80;100690.00;;;;10466391;28;20671;-68
2023/10/11 16:53:31;;;;;;;12.57;4.20;;;;;20.60;100683.00;;;;10454787;28;20281;-71
2023/10/11 16:58:34;;;;;;;11.73;4.10;;;;;20.50;100691.00;;;;10448900;28;20317;-69
2023/10/11 17:03:39;;;;;;;10.63;4.30;;;;;20.40;100685.00;;;;10457455;28;20217;-71
2023/10/11 17:08:41;;;;;;;7.80;3.55;;;;;20.20;100679.00;;;;10458711;28;20238;-71
2023/10/11 17:13:43;;;;;;;11.52;4.60;;;;;20.10;100668.00;;;;10451895;28;20827;-70
2023/10/11 17:18:46;;;;;;;10.27;3.67;;;;;20.00;100676.00;;;;10464017;28;20214;-71
2023/10/11 17:23:49;;;;;;;12.02;3.88;;;;;20.00;100674.00;;;;10462245;28;20258;-71
2023/10/11 17:28:55;;;;;;;13.20;3.63;;;;;20.00;100668.00;;;;10453028;28;20571;-70
2023/10/11 17:33:57;;;;;;;13.07;3.83;;;;;20.10;100686.00;;;;10464156;28;20809;-71
2023/10/11 17:38:59;;;;;;;11.05;3.40;;;;;20.20;100672.00;;;;10460243;28;20438;-70
2023/10/11 17:44:01;;;;;;;12.93;4.13;;;;;20.30;100674.00;;;;10456135;28;20222;-73
2023/10/11 17:49:04;;;;;;;13.30;3.97;;;;;20.30;100680.00;;;;10450739;28;20196;-70
2023/10/11 17:54:06;;;;;;;15.25;4.22;;;;;20.30;100678.00;;;;10461890;28;20252;-70
2023/10/11 17:59:11;;;;;;;10.45;3.28;;;;;20.30;100695.00;;;;10457177;28;20189;-71
2023/10/11 18:04:14;;;;;;;16.65;4.30;;;;;20.30;100706.00;;;;10438478;28;20221;-70
2023/10/11 18:09:16;;;;;;;15.98;4.60;;;;;20.30;100699.00;;;;10458946;28;20186;-70
2023/10/11 18:14:20;;;;;;;10.27;3.60;;;;;20.30;100707.00;;;;10452876;28;20866;-72
2023/10/11 18:19:24;;;;;;;13.65;3.78;;;;;20.30;100704.00;;;;10455766;28;20280;-69
2023/10/11 18:24:26;;;;;;;11.98;4.00;;;;;20.30;100707.00;;;;10456230;28;20226;-70
2023/10/11 18:29:28;;;;;;;14.57;4.30;;;;;20.20;100708.00;;;;10450958;28;20210;-70
2023/10/11 18:34:30;;;;;;;13.10;3.92;;;;;20.10;100704.00;;;;10455249;28;20233;-71
2023/10/11 18:39:33;;;;;;;13.40;3.80;;;;;20.00;100703.00;;;;10458773;28;20239;-69
2023/10/11 18:44:35;;;;;;;12.68;4.30;;;;;19.90;100687.00;;;;10458627;28;20271;-71
2023/10/11 18:49:37;;;;;;;13.45;4.45;;;;;19.90;100687.00;;;;10455810;28;20845;-71
2023/10/11 18:54:40;;;;;;;14.40;4.70;;;;;19.90;100677.00;;;;10459996;28;20190;-71
2023/10/11 18:59:47;;;;;;;10.50;3.78;;;;;19.90;100675.00;;;;10464656;28;20202;-71
2023/10/11 19:04:54;;;;;;;10.73;3.88;;;;;19.90;100682.00;;;;10467931;28;20237;-71
2023/10/11 19:09:56;;;;;;;16.23;4.47;;;;;19.90;100681.00;;;;10460698;28;20248;-70
2023/10/11 19:14:58;;;;;;;13.23;4.30;;;;;19.90;100671.00;;;;10455974;28;20213;-71
2023/10/11 19:20:09;;;;;;;9.95;3.63;;;;;19.90;100668.00;;;;10457583;28;20294;-71
2023/10/11 19:25:13;;;;;;;11.93;3.90;;;;;19.90;100658.00;;;;10450810;28;20844;-69
2023/10/11 19:30:22;;;;;;;8.38;3.70;;;;;19.80;100654.00;;;;10450076;28;20197;-69
2023/10/11 19:35:24;;;;;;;10.63;4.30;;;;;19.90;100665.00;;;;10449388;28;20198;-70
2023/10/11 19:40:27;;;;;;;11.52;4.13;;;;;19.80;100670.00;;;;10451549;28;20186;-69
2023/10/11 19:45:29;;;;;;;10.35;4.22;;;;;19.70;100660.00;;;;10458266;28;20209;-71
2023/10/11 19:50:31;;;;;;;14.43;3.95;;;;;19.60;100646.00;;;;10457409;28;20194;-70
2023/10/11 19:55:33;;;;;;;16.27;4.32;;;;;19.60;100654.00;;;;10450734;28;20194;-70
2023/10/11 20:00:35;;;;;;;17.40;4.07;;;;;19.50;100671.00;;;;10448184;28;20189;-71
2023/10/11 20:05:40;;;;;;;15.18;4.40;;;;;19.50;100683.00;;;;10449786;28;20218;-70
2023/10/11 20:10:47;;;;;;;12.93;4.38;;;;;19.50;100685.00;;;;10463869;28;20193;-70
2023/10/11 20:15:49;;;;;;;9.57;4.88;;;;;19.40;100687.00;;;;10463492;28;20185;-70
2023/10/11 20:20:53;;;;;;;8.07;4.13;;;;;19.40;100690.00;;;;10468630;28;20229;-70
2023/10/11 20:25:55;;;;;;;10.07;3.70;;;;;19.50;100686.00;;;;10472479;28;20214;-72
2023/10/11 20:30:57;;;;;;;9.43;3.60;;;;;19.70;100692.00;;;;10465194;28;20278;-70
2023/10/11 20:36:00;;;;;;;11.50;3.92;;;;;19.70;100699.00;;;;10467788;28;20205;-71
2023/10/11 20:41:08;;;;;;;13.10;4.43;;;;;19.70;100706.00;;;;10406333;28;20891;-72
2023/10/11 20:46:10;;;;;;;13.52;4.20;;;;;19.70;100710.00;;;;10377106;28;20206;-71
2023/10/11 20:51:12;;;;;;;11.27;4.38;;;;;19.70;100705.00;;;;10375881;28;20225;-70
2023/10/11 20:56:15;;;;;;;10.02;4.22;;;;;19.70;100704.00;;;;10384398;28;20308;-72
2023/10/11 21:01:17;;;;;;;13.02;4.15;;;;;19.80;100716.00;;;;10416564;28;20206;-71
2023/10/11 21:06:19;;;;;;;15.13;5.00;;;;;19.80;100712.00;;;;10419841;28;20254;-70
2023/10/11 21:11:21;;;;;;;14.35;4.85;;;;;19.70;100723.00;;;;10418971;28;20286;-71
2023/10/11 21:16:23;;;;;;;14.18;4.65;;;;;19.70;100727.00;;;;10412888;28;20241;-70
2023/10/11 21:21:25;;;;;;;8.73;4.30;;;;;19.70;100729.00;;;;10414071;28;20195;-70
2023/10/11 21:26:30;;;;;;;10.05;3.75;;;;;19.70;100735.00;;;;10411681;28;20306;-72
2023/10/11 21:31:36;;;;;;;10.65;4.22;;;;;19.60;100726.00;;;;10414140;28;20199;-69
2023/10/11 21:36:39;;;;;;;7.22;4.03;;;;;19.60;100741.00;;;;10406086;28;20847;-72
2023/10/11 21:41:42;;;;;;;7.70;3.60;;;;;19.50;100740.00;;;;10409786;28;20195;-71
2023/10/11 21:46:44;;;;;;;13.35;4.45;;;;;19.50;100748.00;;;;10406192;28;20211;-70
2023/10/11 21:51:48;;;;;;;11.75;4.35;;;;;19.40;100735.00;;;;10406639;28;20293;-70
2023/10/11 21:56:50;;;;;;;10.88;4.07;;;;;19.40;100743.00;;;;10404821;28;20194;-71
2023/10/11 22:01:53;;;;;;;7.50;4.25;;;;;19.30;100759.00;;;;10415984;28;20215;-71
2023/10/11 22:06:55;;;;;;;7.30;4.05;;;;;19.30;100767.00;;;;10415600;28;20658;-71
2023/10/11 22:11:57;;;;;;;8.88;4.47;;;;;19.20;100758.00;;;;10408802;28;20727;-71
2023/10/11 22:17:02;;;;;;;13.07;4.13;;;;;19.10;100765.00;;;;10412321;28;20198;-71
2023/10/11 22:22:10;;;;;;;7.25;4.55;;;;;19.10;100760.00;;;;10416157;28;20925;-70
2023/10/11 22:27:12;;;;;;;10.27;4.15;;;;;19.00;100774.00;;;;10414358;28;20852;-69
2023/10/11 22:32:15;;;;;;;9.25;4.50;;;;;18.90;100764.00;;;;10406049;28;20226;-70
2023/10/11 22:37:18;;;;;;;13.30;4.15;;;;;18.90;100771.00;;;;10402515;28;20213;-71
2023/10/11 22:42:32;;;;;;;9.63;4.28;;;;;18.80;100760.00;;;;10425991;28;20547;-70
2023/10/11 22:47:34;;;;;;;11.20;4.45;;;;;18.80;100752.00;;;;10410429;28;20306;-70
2023/10/11 22:52:37;;;;;;;7.55;4.47;;;;;18.70;100746.00;;;;10408106;28;20198;-72
2023/10/11 22:57:43;;;;;;;9.77;4.10;;;;;18.60;100738.00;;;;10405898;28;20201;-70
2023/10/11 23:02:52;;;;;;;9.02;5.20;;;;;18.50;100748.00;;;;10395476;28;20218;-71
2023/10/11 23:07:55;;;;;;;11.50;5.72;;;;;18.50;100760.00;;;;10408683;28;20313;-72
2023/10/11 23:12:57;;;;;;;9.68;4.22;;;;;18.50;100766.00;;;;10406129;28;20194;-71
2023/10/11 23:18:12;;;;;;;10.80;5.00;;;;;18.60;100787.00;;;;10410503;28;20217;-70
2023/10/11 23:23:14;;;;;;;12.70;5.10;;;;;18.50;100786.00;;;;10407134;28;20210;-69
2023/10/11 23:28:21;;;;;;;10.30;5.53;;;;;18.50;100780.00;;;;10406026;28;20215;-70
2023/10/11 23:33:25;;;;;;;7.78;4.38;;;;;18.40;100777.00;;;;10407829;28;20225;-70
2023/10/11 23:38:31;;;;;;;9.38;5.00;;;;;18.30;100783.00;;;;10405437;28;20190;-72
2023/10/11 23:43:36;;;;;;;9.18;5.20;;;;;18.30;100782.00;;;;10407472;28;20199;-71
2023/10/11 23:48:40;;;;;;;9.82;5.20;;;;;18.20;100799.00;;;;10407154;28;20253;-70
2023/10/11 23:53:43;;;;;;;11.65;5.30;;;;;18.20;100799.00;;;;10408136;28;20191;-71
2023/10/11 23:58:56;;;;;;;9.40;5.65;;;;;18.10;100802.00;;;;10403765;28;20198;-70
